Latest Weather Observations for Point Stuart

IDD60901

Issued at 4:25 pm CST Tuesday 2 September 2014 (issued every 10 minutes, with the page automatically refreshed every 10 minutes)

About weather observations | Map of Darwin area stations | Latest observations for Darwin area | Other Formats
Station Details ID: 014254 Name: POINT STUART Lat: -12.24 Lon: 131.88 Height: 1.0 m
Data from the previous 72 hours. | See also: Recent months for locations in Northern Territory
Date/Time
CST
Tmp

°C
App
Tmp
°C
Dew
Point
°C
Rel
Hum
%
Delta-T

°C
Wind Press
QNH
hPa
Press
MSL
hPa
Rain
since
9 am
mm
Dir
 
Spd
km/h
Gust
km/h
Spd
kts
Gust
kts
02/04:00pm 31.2 30.1 14.4 36 10.2 N 13 20 7 11 1010.9 - -
02/03:30pm 30.7 30.2 15.9 40 9.2 N 13 19 7 10 1011.1 - -
02/03:00pm 30.9 29.5 14.5 37 10.0 N 15 20 8 11 1011.4 1011.4 -
02/02:30pm 31.2 30.0 13.9 35 10.4 N 13 20 7 11 1011.9 - 0.0
02/02:00pm 30.7 29.0 13.5 35 10.3 N 15 22 8 12 1012.3 - 0.0
02/01:30pm 31.3 30.6 15.3 38 9.9 N 13 20 7 11 1012.8 - 0.0
02/01:00pm 30.5 29.0 14.2 37 9.9 N 15 22 8 12 1013.1 - 0.0
02/12:30pm 31.0 29.7 13.7 34 10.4 N 13 20 7 11 1013.5 - 0.0
02/12:00pm 30.7 29.0 14.8 38 9.7 NNE 17 22 9 12 1014.0 1014.0 0.0
02/11:30am 30.4 28.2 13.2 35 10.2 NNE 17 24 9 13 1014.5 - 0.0
02/11:00am 29.1 26.9 12.1 35 9.9 ENE 15 20 8 11 1014.9 - 0.0
02/10:30am 28.7 26.8 11.7 35 9.8 E 13 20 7 11 1015.3 - 0.0
02/10:00am 27.6 26.5 13.2 41 8.5 NE 11 17 6 9 1015.3 - 0.0
02/09:30am 26.7 26.8 15.4 50 6.9 NNE 9 13 5 7 1015.4 - 0.0
02/09:00am 25.3 26.8 19.0 68 4.0 NE 9 13 5 7 1015.5 1015.5 0.8
02/08:30am 22.7 24.9 19.7 83 1.9 NE 7 9 4 5 1015.3 - 0.8
02/08:00am 19.8 22.3 19.8 100 0.0 N 6 7 3 4 1015.2 - 0.8
02/07:30am 17.4 20.0 17.4 100 0.0 CALM 0 0 0 0 1014.9 - 0.8
02/07:00am 16.0 17.9 15.7 98 0.2 CALM 0 6 0 3 1014.5 - 0.8
02/06:30am 16.8 19.0 16.6 99 0.1 CALM 0 0 0 0 1014.4 - 0.8
02/06:00am 16.7 18.8 16.2 97 0.3 N 0 0 0 0 1014.1 1014.1 0.8
02/05:30am 17.8 20.5 17.8 100 0.0 CALM 0 0 0 0 1014.1 - 0.8
02/05:00am 17.6 20.1 17.3 98 0.2 CALM 0 0 0 0 1014.2 - 0.8
02/04:30am 17.3 19.4 16.3 94 0.6 CALM 0 0 0 0 1014.2 - 0.8
02/04:00am 18.3 21.2 18.3 100 0.0 CALM 0 4 0 2 1014.1 - 0.8
02/03:30am 17.7 19.0 17.1 96 0.4 N 6 7 3 4 1014.2 - 0.8
02/03:00am 17.7 19.7 16.9 95 0.5 N 2 7 1 4 1014.4 1014.4 0.8
02/02:30am 17.8 19.7 16.7 93 0.7 N 2 6 1 3 1014.3 - 0.8
02/02:00am 18.1 19.8 17.1 94 0.6 N 4 6 2 3 1014.4 - 0.8
02/01:30am 18.5 20.7 17.5 94 0.6 N 2 6 1 3 1014.6 - 0.8
02/01:00am 18.6 19.9 17.1 91 0.9 N 6 7 3 4 1014.5 - 0.8
02/12:30am 19.6 22.5 18.3 92 0.8 CALM 0 0 0 0 1014.7 - 0.8
02/12:00am 20.5 22.7 19.3 93 0.8 N 6 6 3 3 1014.8 1014.8 0.8
 
Date/Time
CST
Tmp

°C
App
Tmp
°C
Dew
Point
°C
Rel
Hum
%
Delta-T

°C
Wind Press
QNH
hPa
Press
MSL
hPa
Rain
since
9 am
mm
Dir
 
Spd
km/h
Gust
km/h
Spd
kts
Gust
kts
01/11:30pm 20.7 23.2 18.1 85 1.6 N 2 6 1 3 1014.7 - 0.8
01/11:00pm 22.2 24.3 19.4 84 1.8 N 7 11 4 6 1014.4 - 0.8
01/10:30pm 22.5 24.7 19.5 83 1.9 N 7 9 4 5 1014.4 - 0.8
01/10:00pm 22.4 24.1 19.4 83 1.9 N 9 13 5 7 1014.1 - 0.8
01/09:30pm 23.4 26.4 21.3 88 1.4 NNE 7 11 4 6 1013.8 - 0.8
01/09:00pm 23.5 25.9 20.8 85 1.8 NE 9 13 5 7 1013.1 1013.1 0.8
01/08:30pm 22.6 22.9 20.5 88 1.4 NE 19 24 10 13 1012.7 - 0.8
01/08:00pm 22.8 24.8 18.8 78 2.5 WNW 6 7 3 4 1011.5 - 0.8
01/07:30pm 23.5 25.5 17.9 71 3.5 WNW 4 6 2 3 1011.1 - 0.8
01/07:00pm 24.7 26.4 18.4 68 4.0 WNW 7 9 4 5 1010.7 - 0.8
01/06:30pm 26.5 27.6 18.9 63 4.9 NW 11 13 6 7 1010.5 - 0.8
01/06:00pm 27.8 28.2 19.1 59 5.6 NW 15 20 8 11 1010.5 1010.5 0.8
01/05:30pm 28.9 29.0 19.2 55 6.3 NW 17 20 9 11 1010.3 - 0.8
01/05:00pm 29.1 29.0 18.8 53 6.6 NW 17 22 9 12 1010.4 - 0.8
01/04:30pm 30.1 29.2 18.2 49 7.6 NW 20 24 11 13 1010.3 - 0.8
01/04:00pm 30.9 29.9 17.6 45 8.5 NNW 19 24 10 13 1010.3 - 0.8
01/03:30pm 29.6 28.4 17.1 47 7.9 NNW 19 28 10 15 1010.4 - 0.0
01/03:00pm 30.4 29.8 18.5 49 7.7 NNW 19 26 10 14 1010.8 1010.8 0.0
01/02:30pm 30.5 29.9 17.6 46 8.2 NNW 17 24 9 13 1011.0 - 0.0
01/02:00pm 31.6 30.6 17.5 43 9.0 NNW 19 26 10 14 1011.4 - 0.0
01/01:30pm 30.8 29.9 16.8 43 8.8 N 17 30 9 16 1011.9 - 0.0
01/01:00pm 31.1 31.2 17.4 44 8.7 N 13 20 7 11 1012.5 - 0.0
01/12:30pm 30.3 29.8 17.0 44 8.4 NE 15 22 8 12 1013.1 - 0.0
01/12:00pm 29.8 29.5 17.3 47 7.9 NE 15 24 8 13 1013.9 1013.9 0.0
01/11:30am 29.3 29.2 17.8 50 7.3 NE 15 20 8 11 1014.4 - 0.0
01/11:00am 28.6 28.0 17.5 51 7.0 ENE 17 24 9 13 1015.0 - 0.0
01/10:30am 27.8 28.1 17.0 51 6.8 E 11 19 6 10 1015.3 - 0.0
01/10:00am 27.7 28.1 16.3 49 7.0 NE 9 19 5 10 1015.5 - 0.0
01/09:30am 27.1 29.5 19.7 64 4.8 NNE 6 13 3 7 1015.4 - 0.0
01/09:00am 25.7 28.4 20.7 74 3.3 W 7 15 4 8 1015.4 1015.4 0.0
01/08:30am 23.4 26.3 20.7 85 1.8 WSW 6 9 3 5 1015.4 - 0.0
01/08:00am 20.2 22.8 19.2 94 0.6 SSE 4 7 2 4 1015.1 - 0.0
01/07:30am 18.6 20.1 18.1 97 0.3 NE 7 9 4 5 1014.9 - 0.0
01/07:00am 17.9 19.0 17.1 95 0.5 NE 7 9 4 5 1014.7 - 0.0
01/06:30am 18.4 19.3 17.6 95 0.5 NE 9 11 5 6 1014.5 - 0.0
01/06:00am 18.8 20.3 17.5 92 0.8 NE 6 9 3 5 1014.1 1014.1 0.0
01/05:30am 19.3 20.7 17.3 88 1.2 NE 6 7 3 4 1013.9 - 0.0
01/05:00am 21.7 23.8 19.3 86 1.5 NE 7 9 4 5 1013.8 - 0.0
01/04:30am 22.6 24.6 19.9 85 1.7 NE 9 15 5 8 1013.5 - 0.0
01/04:00am 22.6 24.6 19.9 85 1.7 NE 9 13 5 7 1013.3 - 0.0
01/03:30am 22.2 23.7 19.7 86 1.6 NE 11 13 6 7 1013.3 - 0.0
01/03:00am 20.5 22.0 19.8 96 0.4 NNE 11 17 6 9 1013.3 1013.3 0.0
01/02:30am 18.7 19.8 17.2 91 0.9 NNE 7 9 4 5 1013.3 - 0.0
01/02:00am 18.1 18.6 16.6 91 0.9 NNE 9 11 5 6 1013.4 - 0.0
01/01:30am 17.5 18.1 15.8 90 1.0 NNE 7 9 4 5 1013.4 - 0.0
01/01:00am 17.7 19.7 15.9 89 1.1 CALM 0 0 0 0 1013.4 - 0.0
01/12:30am 18.0 20.1 16.2 89 1.1 CALM 0 0 0 0 1013.4 - 0.0
01/12:00am 19.1 21.7 17.6 91 0.9 CALM 0 0 0 0 1013.4 1013.4 0.0
 
Date/Time
CST
Tmp

°C
App
Tmp
°C
Dew
Point
°C
Rel
Hum
%
Delta-T

°C
Wind Press
QNH
hPa
Press
MSL
hPa
Rain
since
9 am
mm
Dir
 
Spd
km/h
Gust
km/h
Spd
kts
Gust
kts
31/11:30pm 19.1 21.5 16.9 87 1.3 CALM 0 0 0 0 1013.5 - 0.0
31/11:00pm 19.6 21.8 16.6 83 1.8 CALM 0 0 0 0 1013.2 - 0.0
31/10:30pm 21.3 23.1 16.5 74 2.9 NNE 2 6 1 3 1013.0 - 0.0
31/10:00pm 21.8 23.5 18.4 81 2.1 NNE 7 11 4 6 1012.7 - 0.0
31/09:30pm 22.1 23.5 17.9 77 2.6 NNE 7 9 4 5 1012.6 - 0.0
31/09:00pm 22.2 24.0 18.8 81 2.1 NNE 7 11 4 6 1012.2 1012.2 0.0
31/08:30pm 22.6 24.2 19.2 81 2.2 NNE 9 13 5 7 1011.7 - 0.0
31/08:00pm 21.2 23.2 17.8 81 2.1 NW 4 6 2 3 1011.0 - 0.0
31/07:30pm 21.9 23.3 16.4 71 3.3 NW 4 7 2 4 1010.6 - 0.0
31/07:00pm 23.8 25.0 17.3 67 4.0 NW 7 9 4 5 1010.2 - 0.0
31/06:30pm 25.9 26.7 17.3 59 5.4 NW 9 11 5 6 1009.9 - 0.0
31/06:00pm 28.1 27.9 16.7 50 7.1 NW 13 19 7 10 1009.6 1009.6 0.0
31/05:30pm 28.8 27.3 16.4 47 7.7 NW 19 24 10 13 1009.4 - 0.0
31/05:00pm 29.7 27.4 14.7 40 9.1 NNW 20 26 11 14 1009.4 - 0.0
31/04:30pm 30.3 28.3 15.6 41 9.1 NW 20 28 11 15 1009.5 - 0.0
31/04:00pm 30.2 28.0 12.1 32 10.6 NNW 15 20 8 11 1009.6 - 0.0
31/03:30pm 29.8 27.8 14.0 38 9.5 N 17 24 9 13 1009.7 - 0.0
31/03:00pm 30.6 28.0 12.0 32 10.9 NNW 17 24 9 13 1010.0 1010.0 0.0
31/02:30pm 32.0 30.0 10.1 26 12.5 N 11 20 6 11 1010.2 - 0.0
31/02:00pm 31.4 28.6 12.7 32 11.1 NNW 19 26 10 14 1010.6 - 0.0
31/01:30pm 31.9 27.6 5.4 19 14.0 E 17 28 9 15 1011.1 - 0.0
31/01:00pm 31.6 28.0 6.6 21 13.5 E 15 28 8 15 1011.6 - 0.0
31/12:30pm 30.8 27.6 8.5 25 12.3 E 15 22 8 12 1012.2 - 0.0
31/12:00pm 29.6 26.6 9.2 28 11.4 E 15 20 8 11 1012.9 1012.9 0.0
31/11:30am 29.7 27.2 11.2 31 10.6 ENE 15 24 8 13 1013.6 - 0.0
31/11:00am 28.7 27.3 12.2 36 9.6 NW 11 17 6 9 1014.3 - 0.0
31/10:30am 27.2 25.3 11.7 38 8.9 E 13 20 7 11 1014.7 - 0.0
31/10:00am 26.8 24.5 11.7 39 8.6 ENE 15 20 8 11 1015.1 - 0.0
31/09:30am 27.0 25.8 14.1 45 7.7 ENE 13 19 7 10 1015.1 - 0.0
31/09:00am 24.9 26.4 18.8 69 3.9 ESE 9 11 5 6 1014.9 1014.9 1.6
31/08:30am 22.6 26.8 21.8 95 0.5 NE 2 6 1 3 1014.6 - 1.6
31/08:00am 19.3 22.7 19.3 100 0.0 CALM 0 0 0 0 1014.4 - 1.6
31/07:30am 17.2 18.5 17.2 100 0.0 NNE 6 7 3 4 1014.0 - 1.6
31/07:00am 16.6 17.7 16.6 100 0.0 NNE 6 7 3 4 1013.7 - 1.6
31/06:30am 16.8 17.8 16.8 100 0.0 N 7 9 4 5 1013.4 - 1.0
31/06:00am 16.8 18.7 16.6 99 0.1 N 2 9 1 5 1013.1 1013.1 0.6
31/05:30am 16.9 18.8 16.7 99 0.1 N 2 7 1 4 1012.8 - 0.6
31/05:00am 17.1 19.5 16.9 99 0.1 CALM 0 0 0 0 1012.9 - 0.6
31/04:30am 17.1 19.3 16.5 96 0.4 CALM 0 2 0 1 1012.9 - 0.4
31/04:00am 17.4 19.3 16.6 95 0.5 NNE 2 6 1 3 1013.0 - 0.2
31/03:30am 17.3 19.0 16.3 94 0.6 NE 2 6 1 3 1013.1 - 0.2
31/03:00am 17.5 19.6 16.2 92 0.8 CALM 0 0 0 0 1013.2 1013.2 0.2
31/02:30am 17.8 19.7 16.8 94 0.6 N 2 6 1 3 1013.4 - 0.2
31/02:00am 18.8 21.7 18.3 97 0.3 CALM 0 0 0 0 1013.6 - 0.2
31/01:30am 18.7 20.5 18.2 97 0.3 NE 6 7 3 4 1013.7 - 0.2
31/01:00am 18.1 19.1 16.3 89 1.1 NE 6 7 3 4 1013.7 - 0.2
31/12:30am 18.9 21.2 17.6 92 0.8 NNE 2 6 1 3 1013.6 - 0.2
31/12:00am 19.1 20.5 17.4 90 1.0 N 6 7 3 4 1013.6 1013.6 0.2
 
Date/Time
CST
Tmp

°C
App
Tmp
°C
Dew
Point
°C
Rel
Hum
%
Delta-T

°C
Wind Press
QNH
hPa
Press
MSL
hPa
Rain
since
9 am
mm
Dir
 
Spd
km/h
Gust
km/h
Spd
kts
Gust
kts
30/11:30pm 19.5 20.9 17.8 90 1.0 N 7 9 4 5 1013.6 - 0.2
30/11:00pm 19.9 22.6 17.7 87 1.4 CALM 0 0 0 0 1013.2 - 0.2
30/10:30pm 21.1 23.5 17.1 78 2.4 CALM 0 6 0 3 1013.0 - 0.2
30/10:00pm 22.2 23.9 18.4 79 2.4 N 7 11 4 6 1012.9 - 0.2
30/09:30pm 23.7 25.1 17.7 69 3.7 NE 7 9 4 5 1012.9 - 0.2
30/09:00pm 24.0 24.4 17.3 66 4.2 NE 11 20 6 11 1012.7 1012.7 0.2
30/08:30pm 20.9 21.5 16.9 78 2.4 N 9 13 5 7 1012.3 - 0.2
30/08:00pm 21.8 23.1 17.6 77 2.6 NW 7 9 4 5 1011.9 - 0.2
30/07:30pm 22.4 23.9 18.0 76 2.7 NW 7 11 4 6 1011.5 - 0.2
30/07:00pm 23.4 23.8 16.4 64 4.3 WNW 9 11 5 6 1011.1 - 0.2
30/06:30pm 25.7 25.9 16.8 58 5.5 WNW 11 15 6 8 1010.9 - 0.2
30/06:00pm 27.6 27.5 16.9 52 6.7 WNW 13 19 7 10 1010.4 1010.4 0.2
30/05:30pm 28.7 28.1 13.4 39 9.1 N 9 17 5 9 1010.2 - 0.2
30/05:00pm 29.2 28.1 13.0 37 9.6 N 11 15 6 8 1010.1 - 0.2
30/04:30pm 30.1 28.0 11.1 31 10.9 N 13 17 7 9 1010.1 - 0.2

Latest Capital City Observations: Canberra | Sydney | Melbourne | Brisbane | Adelaide | Perth | Hobart | Darwin

Other Formats:

Comma delimited format used in spreadsheet applications
http://www.bom.gov.au/fwo/IDD60901/IDD60901.94127.axf

JavaScript Object Notation format (JSON) in row-major order
http://www.bom.gov.au/fwo/IDD60901/IDD60901.94127.json